sensor_id;sensor_type;location;lat;lon;timestamp;temperature;humidity
15937;DHT22;9163;48.818;8.976;2023-07-22T00:01:06;13.10;99.90
15937;DHT22;9163;48.818;8.976;2023-07-22T00:03:33;13.00;99.90
15937;DHT22;9163;48.818;8.976;2023-07-22T00:06:05;12.90;99.90
15937;DHT22;9163;48.818;8.976;2023-07-22T00:08:32;12.90;99.90
15937;DHT22;9163;48.818;8.976;2023-07-22T00:10:59;12.80;99.90
15937;DHT22;9163;48.818;8.976;2023-07-22T00:13:28;12.80;99.90
15937;DHT22;9163;48.818;8.976;2023-07-22T00:15:56;12.80;99.90
15937;DHT22;9163;48.818;8.976;2023-07-22T00:18:25;12.70;99.90
15937;DHT22;9163;48.818;8.976;2023-07-22T00:20:53;12.60;99.90
15937;DHT22;9163;48.818;8.976;2023-07-22T00:23:20;12.60;99.90
15937;DHT22;9163;48.818;8.976;2023-07-22T00:25:48;12.50;99.90
15937;DHT22;9163;48.818;8.976;2023-07-22T00:28:15;12.60;99.90
15937;DHT22;9163;48.818;8.976;2023-07-22T00:30:45;12.60;99.90
15937;DHT22;9163;48.818;8.976;2023-07-22T00:33:15;12.50;99.90
15937;DHT22;9163;48.818;8.976;2023-07-22T00:35:42;12.50;99.90
15937;DHT22;9163;48.818;8.976;2023-07-22T00:38:09;12.50;99.90
15937;DHT22;9163;48.818;8.976;2023-07-22T00:40:36;12.50;99.90
15937;DHT22;9163;48.818;8.976;2023-07-22T00:43:04;12.50;99.90
15937;DHT22;9163;48.818;8.976;2023-07-22T00:45:33;12.50;99.90
15937;DHT22;9163;48.818;8.976;2023-07-22T00:48:02;12.50;99.90
15937;DHT22;9163;48.818;8.976;2023-07-22T00:50:29;12.60;99.90
15937;DHT22;9163;48.818;8.976;2023-07-22T00:52:57;12.60;99.90
15937;DHT22;9163;48.818;8.976;2023-07-22T00:55:25;12.60;99.90
15937;DHT22;9163;48.818;8.976;2023-07-22T00:57:53;12.70;99.90
15937;DHT22;9163;48.818;8.976;2023-07-22T01:00:21;12.70;99.90
15937;DHT22;9163;48.818;8.976;2023-07-22T01:02:49;12.60;99.90
15937;DHT22;9163;48.818;8.976;2023-07-22T01:05:18;12.60;99.90
15937;DHT22;9163;48.818;8.976;2023-07-22T01:07:45;12.50;99.90
15937;DHT22;9163;48.818;8.976;2023-07-22T01:10:13;12.50;99.90
15937;DHT22;9163;48.818;8.976;2023-07-22T01:12:40;12.50;99.90
15937;DHT22;9163;48.818;8.976;2023-07-22T01:15:08;12.50;99.90
15937;DHT22;9163;48.818;8.976;2023-07-22T01:17:37;12.50;99.90
15937;DHT22;9163;48.818;8.976;2023-07-22T01:20:05;12.50;99.90
15937;DHT22;9163;48.818;8.976;2023-07-22T01:22:35;12.50;99.90
15937;DHT22;9163;48.818;8.976;2023-07-22T01:25:05;12.50;99.90
15937;DHT22;9163;48.818;8.976;2023-07-22T01:27:33;12.50;99.90
15937;DHT22;9163;48.818;8.976;2023-07-22T01:30:00;12.40;99.90
15937;DHT22;9163;48.818;8.976;2023-07-22T01:32:29;12.40;99.90
15937;DHT22;9163;48.818;8.976;2023-07-22T01:34:57;12.40;99.90
15937;DHT22;9163;48.818;8.976;2023-07-22T01:37:24;12.40;99.90
15937;DHT22;9163;48.818;8.976;2023-07-22T01:39:52;12.40;99.90
15937;DHT22;9163;48.818;8.976;2023-07-22T01:42:22;12.50;99.90
15937;DHT22;9163;48.818;8.976;2023-07-22T01:44:50;12.50;99.90
15937;DHT22;9163;48.818;8.976;2023-07-22T01:47:17;12.50;99.90
15937;DHT22;9163;48.818;8.976;2023-07-22T01:49:44;12.50;99.90
15937;DHT22;9163;48.818;8.976;2023-07-22T01:52:12;12.40;99.90
15937;DHT22;9163;48.818;8.976;2023-07-22T01:54:39;12.50;99.90
15937;DHT22;9163;48.818;8.976;2023-07-22T01:57:06;12.50;99.90
15937;DHT22;9163;48.818;8.976;2023-07-22T01:59:35;12.50;99.90
15937;DHT22;9163;48.818;8.976;2023-07-22T02:02:02;12.50;99.90
15937;DHT22;9163;48.818;8.976;2023-07-22T02:04:29;12.50;99.90
15937;DHT22;9163;48.818;8.976;2023-07-22T02:06:57;12.50;99.90
15937;DHT22;9163;48.818;8.976;2023-07-22T02:09:24;12.40;99.90
15937;DHT22;9163;48.818;8.976;2023-07-22T02:11:51;12.40;99.90
15937;DHT22;9163;48.818;8.976;2023-07-22T02:14:19;12.40;99.90
15937;DHT22;9163;48.818;8.976;2023-07-22T02:16:47;12.30;99.90
15937;DHT22;9163;48.818;8.976;2023-07-22T02:19:15;12.30;99.90
15937;DHT22;9163;48.818;8.976;2023-07-22T02:21:42;12.30;99.90
15937;DHT22;9163;48.818;8.976;2023-07-22T02:24:10;12.20;99.90
15937;DHT22;9163;48.818;8.976;2023-07-22T02:26:37;12.20;99.90
15937;DHT22;9163;48.818;8.976;2023-07-22T02:29:04;12.20;99.90
15937;DHT22;9163;48.818;8.976;2023-07-22T02:31:31;12.10;99.90
15937;DHT22;9163;48.818;8.976;2023-07-22T02:34:00;12.10;99.90
15937;DHT22;9163;48.818;8.976;2023-07-22T02:36:27;12.10;99.90
15937;DHT22;9163;48.818;8.976;2023-07-22T02:38:55;12.10;99.90
15937;DHT22;9163;48.818;8.976;2023-07-22T02:41:22;12.10;99.90
15937;DHT22;9163;48.818;8.976;2023-07-22T02:43:49;12.10;99.90
15937;DHT22;9163;48.818;8.976;2023-07-22T02:46:16;12.10;99.90
15937;DHT22;9163;48.818;8.976;2023-07-22T02:48:44;12.00;99.90
15937;DHT22;9163;48.818;8.976;2023-07-22T02:51:12;12.00;99.90
15937;DHT22;9163;48.818;8.976;2023-07-22T02:53:39;12.00;99.90
15937;DHT22;9163;48.818;8.976;2023-07-22T02:56:07;12.00;99.90
15937;DHT22;9163;48.818;8.976;2023-07-22T02:58:35;12.00;99.90
15937;DHT22;9163;48.818;8.976;2023-07-22T03:01:03;12.00;99.90
15937;DHT22;9163;48.818;8.976;2023-07-22T03:03:30;12.00;99.90
15937;DHT22;9163;48.818;8.976;2023-07-22T03:05:59;12.00;99.90
15937;DHT22;9163;48.818;8.976;2023-07-22T03:08:28;11.90;99.90
15937;DHT22;9163;48.818;8.976;2023-07-22T03:10:55;11.90;99.90
15937;DHT22;9163;48.818;8.976;2023-07-22T03:13:22;11.90;99.90
15937;DHT22;9163;48.818;8.976;2023-07-22T03:15:49;11.90;99.90
15937;DHT22;9163;48.818;8.976;2023-07-22T03:18:17;11.90;99.90
15937;DHT22;9163;48.818;8.976;2023-07-22T03:20:44;11.90;99.90
15937;DHT22;9163;48.818;8.976;2023-07-22T03:23:11;11.80;99.90
15937;DHT22;9163;48.818;8.976;2023-07-22T03:25:40;11.80;99.90
15937;DHT22;9163;48.818;8.976;2023-07-22T03:28:08;11.70;99.90
15937;DHT22;9163;48.818;8.976;2023-07-22T03:30:35;11.70;99.90
15937;DHT22;9163;48.818;8.976;2023-07-22T03:33:02;11.60;99.90
15937;DHT22;9163;48.818;8.976;2023-07-22T03:35:30;11.60;99.90
15937;DHT22;9163;48.818;8.976;2023-07-22T03:37:57;11.70;99.90
15937;DHT22;9163;48.818;8.976;2023-07-22T03:40:24;11.70;99.90
15937;DHT22;9163;48.818;8.976;2023-07-22T03:42:57;11.70;99.90
15937;DHT22;9163;48.818;8.976;2023-07-22T03:45:25;11.70;99.90
15937;DHT22;9163;48.818;8.976;2023-07-22T03:47:55;11.60;99.90
15937;DHT22;9163;48.818;8.976;2023-07-22T03:50:22;11.70;99.90
15937;DHT22;9163;48.818;8.976;2023-07-22T03:52:49;11.70;99.90
15937;DHT22;9163;48.818;8.976;2023-07-22T03:55:17;11.60;99.90
15937;DHT22;9163;48.818;8.976;2023-07-22T03:57:45;11.60;99.90
15937;DHT22;9163;48.818;8.976;2023-07-22T04:00:14;11.60;99.90
15937;DHT22;9163;48.818;8.976;2023-07-22T04:02:41;11.60;99.90
15937;DHT22;9163;48.818;8.976;2023-07-22T04:05:09;11.60;99.90
15937;DHT22;9163;48.818;8.976;2023-07-22T04:07:37;11.60;99.90
15937;DHT22;9163;48.818;8.976;2023-07-22T04:10:05;11.60;99.90
15937;DHT22;9163;48.818;8.976;2023-07-22T04:12:33;11.60;99.90
15937;DHT22;9163;48.818;8.976;2023-07-22T04:15:00;11.50;99.90
15937;DHT22;9163;48.818;8.976;2023-07-22T04:17:28;11.60;99.90
15937;DHT22;9163;48.818;8.976;2023-07-22T04:19:56;11.60;99.90
15937;DHT22;9163;48.818;8.976;2023-07-22T04:22:23;11.60;99.90
15937;DHT22;9163;48.818;8.976;2023-07-22T04:24:50;11.60;99.90
15937;DHT22;9163;48.818;8.976;2023-07-22T04:27:17;11.70;99.90
15937;DHT22;9163;48.818;8.976;2023-07-22T04:29:45;11.70;99.90
15937;DHT22;9163;48.818;8.976;2023-07-22T04:32:12;11.70;99.90
15937;DHT22;9163;48.818;8.976;2023-07-22T04:34:40;11.70;99.90
15937;DHT22;9163;48.818;8.976;2023-07-22T04:37:08;11.80;99.90
15937;DHT22;9163;48.818;8.976;2023-07-22T04:39:36;11.70;99.90
15937;DHT22;9163;48.818;8.976;2023-07-22T04:42:04;11.80;99.90
15937;DHT22;9163;48.818;8.976;2023-07-22T04:44:31;11.80;99.90
15937;DHT22;9163;48.818;8.976;2023-07-22T04:46:59;11.90;99.90
15937;DHT22;9163;48.818;8.976;2023-07-22T04:49:26;12.00;99.90
15937;DHT22;9163;48.818;8.976;2023-07-22T04:51:54;12.00;99.90
15937;DHT22;9163;48.818;8.976;2023-07-22T04:54:22;12.10;99.90
15937;DHT22;9163;48.818;8.976;2023-07-22T04:56:49;12.20;99.90
15937;DHT22;9163;48.818;8.976;2023-07-22T04:59:16;12.30;99.90
15937;DHT22;9163;48.818;8.976;2023-07-22T05:01:44;12.30;99.90
15937;DHT22;9163;48.818;8.976;2023-07-22T05:04:11;12.40;99.90
15937;DHT22;9163;48.818;8.976;2023-07-22T05:06:39;12.50;99.90
15937;DHT22;9163;48.818;8.976;2023-07-22T05:09:07;12.50;99.90
15937;DHT22;9163;48.818;8.976;2023-07-22T05:11:35;12.50;99.90
15937;DHT22;9163;48.818;8.976;2023-07-22T05:14:02;12.60;99.90
15937;DHT22;9163;48.818;8.976;2023-07-22T05:16:29;12.70;99.90
15937;DHT22;9163;48.818;8.976;2023-07-22T05:18:56;12.80;99.90
15937;DHT22;9163;48.818;8.976;2023-07-22T05:21:24;12.90;99.90
15937;DHT22;9163;48.818;8.976;2023-07-22T05:23:51;13.10;99.90
15937;DHT22;9163;48.818;8.976;2023-07-22T05:26:19;13.20;99.90
15937;DHT22;9163;48.818;8.976;2023-07-22T05:28:47;13.20;99.90
15937;DHT22;9163;48.818;8.976;2023-07-22T05:31:14;13.30;99.90
15937;DHT22;9163;48.818;8.976;2023-07-22T05:33:43;13.40;99.90
15937;DHT22;9163;48.818;8.976;2023-07-22T05:36:10;13.50;99.90
15937;DHT22;9163;48.818;8.976;2023-07-22T05:38:37;13.60;99.90
15937;DHT22;9163;48.818;8.976;2023-07-22T05:41:04;13.70;99.90
15937;DHT22;9163;48.818;8.976;2023-07-22T05:43:33;13.90;99.90
15937;DHT22;9163;48.818;8.976;2023-07-22T05:46:00;14.00;99.90
15937;DHT22;9163;48.818;8.976;2023-07-22T05:48:27;14.10;99.90
15937;DHT22;9163;48.818;8.976;2023-07-22T05:50:55;14.20;99.90
15937;DHT22;9163;48.818;8.976;2023-07-22T05:53:22;14.50;99.90
15937;DHT22;9163;48.818;8.976;2023-07-22T05:55:49;14.70;99.90
15937;DHT22;9163;48.818;8.976;2023-07-22T05:58:17;14.80;99.90
15937;DHT22;9163;48.818;8.976;2023-07-22T06:00:46;14.90;99.90
15937;DHT22;9163;48.818;8.976;2023-07-22T06:03:13;15.20;99.90
15937;DHT22;9163;48.818;8.976;2023-07-22T06:05:40;15.40;99.90
15937;DHT22;9163;48.818;8.976;2023-07-22T06:08:08;15.60;99.90
15937;DHT22;9163;48.818;8.976;2023-07-22T06:10:35;15.70;99.90
15937;DHT22;9163;48.818;8.976;2023-07-22T06:13:03;15.50;99.90
15937;DHT22;9163;48.818;8.976;2023-07-22T06:15:31;15.70;99.90
15937;DHT22;9163;48.818;8.976;2023-07-22T06:18:00;15.80;99.90
15937;DHT22;9163;48.818;8.976;2023-07-22T06:20:27;15.80;99.90
15937;DHT22;9163;48.818;8.976;2023-07-22T06:22:55;15.90;99.90
15937;DHT22;9163;48.818;8.976;2023-07-22T06:25:22;15.80;99.90
15937;DHT22;9163;48.818;8.976;2023-07-22T06:27:49;16.00;99.90
15937;DHT22;9163;48.818;8.976;2023-07-22T06:30:17;16.20;99.90
15937;DHT22;9163;48.818;8.976;2023-07-22T06:32:44;16.40;99.90
15937;DHT22;9163;48.818;8.976;2023-07-22T06:35:13;16.50;99.90
15937;DHT22;9163;48.818;8.976;2023-07-22T06:37:40;16.70;99.90
15937;DHT22;9163;48.818;8.976;2023-07-22T06:40:08;16.80;99.90
15937;DHT22;9163;48.818;8.976;2023-07-22T06:42:35;17.00;99.90
15937;DHT22;9163;48.818;8.976;2023-07-22T06:45:03;17.30;99.90
15937;DHT22;9163;48.818;8.976;2023-07-22T06:47:30;17.50;99.90
15937;DHT22;9163;48.818;8.976;2023-07-22T06:49:57;17.70;99.90
15937;DHT22;9163;48.818;8.976;2023-07-22T06:52:26;17.80;94.30
15937;DHT22;9163;48.818;8.976;2023-07-22T06:54:54;17.90;95.20
15937;DHT22;9163;48.818;8.976;2023-07-22T06:57:21;18.20;76.00
15937;DHT22;9163;48.818;8.976;2023-07-22T06:59:48;18.30;68.20
15937;DHT22;9163;48.818;8.976;2023-07-22T07:02:16;18.60;51.30
15937;DHT22;9163;48.818;8.976;2023-07-22T07:04:43;18.80;36.80
15937;DHT22;9163;48.818;8.976;2023-07-22T07:07:11;19.00;26.90
15937;DHT22;9163;48.818;8.976;2023-07-22T07:09:40;19.20;10.20
15937;DHT22;9163;48.818;8.976;2023-07-22T07:12:07;19.20;13.20
15937;DHT22;9163;48.818;8.976;2023-07-22T07:14:35;19.30;13.50
15937;DHT22;9163;48.818;8.976;2023-07-22T07:17:03;19.50;6.00
15937;DHT22;9163;48.818;8.976;2023-07-22T07:19:30;19.60;6.20
15937;DHT22;9163;48.818;8.976;2023-07-22T07:21:57;19.70;2.30
15937;DHT22;9163;48.818;8.976;2023-07-22T07:24:25;19.80;1.70
15937;DHT22;9163;48.818;8.976;2023-07-22T07:26:54;20.10;1.00
15937;DHT22;9163;48.818;8.976;2023-07-22T07:29:21;20.00;1.00
15937;DHT22;9163;48.818;8.976;2023-07-22T07:31:48;20.10;1.00
15937;DHT22;9163;48.818;8.976;2023-07-22T07:34:16;20.40;1.00
15937;DHT22;9163;48.818;8.976;2023-07-22T07:36:43;20.50;1.00
15937;DHT22;9163;48.818;8.976;2023-07-22T07:39:10;20.30;1.00
15937;DHT22;9163;48.818;8.976;2023-07-22T07:41:37;20.50;1.00
15937;DHT22;9163;48.818;8.976;2023-07-22T07:44:06;20.60;1.00
15937;DHT22;9163;48.818;8.976;2023-07-22T07:46:34;20.50;1.00
15937;DHT22;9163;48.818;8.976;2023-07-22T07:49:01;20.70;1.00
15937;DHT22;9163;48.818;8.976;2023-07-22T07:51:30;20.70;1.00
15937;DHT22;9163;48.818;8.976;2023-07-22T07:53:59;20.80;1.00
15937;DHT22;9163;48.818;8.976;2023-07-22T07:56:26;20.70;1.00
15937;DHT22;9163;48.818;8.976;2023-07-22T07:58:55;21.00;1.00
15937;DHT22;9163;48.818;8.976;2023-07-22T08:01:23;21.20;1.00
15937;DHT22;9163;48.818;8.976;2023-07-22T08:03:50;21.50;1.00
15937;DHT22;9163;48.818;8.976;2023-07-22T08:06:18;21.50;1.00
15937;DHT22;9163;48.818;8.976;2023-07-22T08:08:45;21.90;1.00
15937;DHT22;9163;48.818;8.976;2023-07-22T08:11:14;21.80;1.00
15937;DHT22;9163;48.818;8.976;2023-07-22T08:13:42;21.50;1.00
15937;DHT22;9163;48.818;8.976;2023-07-22T08:16:12;21.10;1.00
15937;DHT22;9163;48.818;8.976;2023-07-22T08:18:41;21.10;1.00
15937;DHT22;9163;48.818;8.976;2023-07-22T08:21:08;21.10;1.00
15937;DHT22;9163;48.818;8.976;2023-07-22T08:23:36;21.40;1.00
15937;DHT22;9163;48.818;8.976;2023-07-22T08:26:04;21.50;1.00
15937;DHT22;9163;48.818;8.976;2023-07-22T08:28:32;21.30;1.00
15937;DHT22;9163;48.818;8.976;2023-07-22T08:30:59;21.30;1.00
15937;DHT22;9163;48.818;8.976;2023-07-22T08:33:27;21.30;1.00
15937;DHT22;9163;48.818;8.976;2023-07-22T08:35:56;21.30;1.00
15937;DHT22;9163;48.818;8.976;2023-07-22T08:38:23;21.40;1.00
15937;DHT22;9163;48.818;8.976;2023-07-22T08:40:50;21.70;1.00
15937;DHT22;9163;48.818;8.976;2023-07-22T08:43:20;21.70;1.00
15937;DHT22;9163;48.818;8.976;2023-07-22T08:45:49;21.40;1.00
15937;DHT22;9163;48.818;8.976;2023-07-22T08:48:17;21.10;1.00
15937;DHT22;9163;48.818;8.976;2023-07-22T08:50:46;21.30;1.00
15937;DHT22;9163;48.818;8.976;2023-07-22T08:53:16;21.40;1.00
15937;DHT22;9163;48.818;8.976;2023-07-22T08:55:45;21.50;1.00
15937;DHT22;9163;48.818;8.976;2023-07-22T08:58:14;21.70;1.00
15937;DHT22;9163;48.818;8.976;2023-07-22T09:00:42;21.80;1.00
15937;DHT22;9163;48.818;8.976;2023-07-22T09:03:09;22.30;1.00
15937;DHT22;9163;48.818;8.976;2023-07-22T09:05:38;22.30;1.00
15937;DHT22;9163;48.818;8.976;2023-07-22T09:08:07;22.10;1.00
15937;DHT22;9163;48.818;8.976;2023-07-22T09:10:37;22.20;1.00
15937;DHT22;9163;48.818;8.976;2023-07-22T09:13:05;22.10;1.00
15937;DHT22;9163;48.818;8.976;2023-07-22T09:15:36;22.40;1.00
15937;DHT22;9163;48.818;8.976;2023-07-22T09:18:03;22.50;1.00
15937;DHT22;9163;48.818;8.976;2023-07-22T09:20:31;22.60;1.00
15937;DHT22;9163;48.818;8.976;2023-07-22T09:22:59;22.30;1.00
15937;DHT22;9163;48.818;8.976;2023-07-22T09:25:28;22.30;1.00
15937;DHT22;9163;48.818;8.976;2023-07-22T09:27:58;22.10;1.00
15937;DHT22;9163;48.818;8.976;2023-07-22T09:30:28;22.10;1.00
15937;DHT22;9163;48.818;8.976;2023-07-22T09:32:57;22.40;1.00
15937;DHT22;9163;48.818;8.976;2023-07-22T09:35:27;22.50;1.00
15937;DHT22;9163;48.818;8.976;2023-07-22T09:37:55;22.80;1.00
15937;DHT22;9163;48.818;8.976;2023-07-22T09:40:24;23.70;1.00
15937;DHT22;9163;48.818;8.976;2023-07-22T09:42:53;23.80;1.00
15937;DHT22;9163;48.818;8.976;2023-07-22T09:45:23;23.50;1.00
15937;DHT22;9163;48.818;8.976;2023-07-22T09:47:52;22.90;1.00
15937;DHT22;9163;48.818;8.976;2023-07-22T09:50:20;23.80;1.00
15937;DHT22;9163;48.818;8.976;2023-07-22T09:52:49;24.30;1.00
15937;DHT22;9163;48.818;8.976;2023-07-22T09:55:18;24.60;1.00
15937;DHT22;9163;48.818;8.976;2023-07-22T09:57:47;24.10;1.00
15937;DHT22;9163;48.818;8.976;2023-07-22T10:00:16;24.10;1.00
15937;DHT22;9163;48.818;8.976;2023-07-22T10:02:48;24.20;1.00
15937;DHT22;9163;48.818;8.976;2023-07-22T10:05:17;24.20;1.00
15937;DHT22;9163;48.818;8.976;2023-07-22T10:07:46;23.50;1.00
15937;DHT22;9163;48.818;8.976;2023-07-22T10:10:16;23.10;1.00
15937;DHT22;9163;48.818;8.976;2023-07-22T10:12:44;22.80;1.00
15937;DHT22;9163;48.818;8.976;2023-07-22T10:15:14;22.80;1.00
15937;DHT22;9163;48.818;8.976;2023-07-22T10:17:42;23.10;1.00
15937;DHT22;9163;48.818;8.976;2023-07-22T10:20:13;23.00;1.00
15937;DHT22;9163;48.818;8.976;2023-07-22T10:22:43;22.60;1.00
15937;DHT22;9163;48.818;8.976;2023-07-22T10:25:12;22.80;1.00
15937;DHT22;9163;48.818;8.976;2023-07-22T10:27:40;23.20;1.00
15937;DHT22;9163;48.818;8.976;2023-07-22T10:30:08;23.90;1.00
15937;DHT22;9163;48.818;8.976;2023-07-22T10:32:38;23.80;1.00
15937;DHT22;9163;48.818;8.976;2023-07-22T10:35:09;24.60;1.00
15937;DHT22;9163;48.818;8.976;2023-07-22T10:37:39;25.00;1.00
15937;DHT22;9163;48.818;8.976;2023-07-22T10:40:25;25.40;1.00
15937;DHT22;9163;48.818;8.976;2023-07-22T10:42:55;26.20;1.00
15937;DHT22;9163;48.818;8.976;2023-07-22T10:45:25;25.30;1.00
15937;DHT22;9163;48.818;8.976;2023-07-22T10:48:01;26.10;1.00
15937;DHT22;9163;48.818;8.976;2023-07-22T10:50:42;26.70;1.00
15937;DHT22;9163;48.818;8.976;2023-07-22T10:53:12;27.60;1.00
15937;DHT22;9163;48.818;8.976;2023-07-22T10:56:05;26.90;1.00
15937;DHT22;9163;48.818;8.976;2023-07-22T10:58:34;25.30;1.00
15937;DHT22;9163;48.818;8.976;2023-07-22T11:01:24;25.10;1.00
15937;DHT22;9163;48.818;8.976;2023-07-22T11:04:06;25.20;1.00
15937;DHT22;9163;48.818;8.976;2023-07-22T11:06:34;25.10;1.00
15937;DHT22;9163;48.818;8.976;2023-07-22T11:09:03;24.30;1.00
15937;DHT22;9163;48.818;8.976;2023-07-22T11:11:38;23.80;1.00
15937;DHT22;9163;48.818;8.976;2023-07-22T11:14:15;23.90;1.00
15937;DHT22;9163;48.818;8.976;2023-07-22T11:16:43;23.70;1.00
15937;DHT22;9163;48.818;8.976;2023-07-22T11:19:12;23.60;1.00
15937;DHT22;9163;48.818;8.976;2023-07-22T11:21:40;23.80;1.00
15937;DHT22;9163;48.818;8.976;2023-07-22T11:24:08;24.50;1.00
15937;DHT22;9163;48.818;8.976;2023-07-22T11:26:36;25.00;1.00
15937;DHT22;9163;48.818;8.976;2023-07-22T11:29:05;25.20;1.00
15937;DHT22;9163;48.818;8.976;2023-07-22T11:31:33;26.10;1.00
15937;DHT22;9163;48.818;8.976;2023-07-22T11:34:02;26.40;1.00
15937;DHT22;9163;48.818;8.976;2023-07-22T11:36:30;26.40;1.00
15937;DHT22;9163;48.818;8.976;2023-07-22T11:39:02;27.00;1.00
15937;DHT22;9163;48.818;8.976;2023-07-22T11:41:31;26.60;1.00
15937;DHT22;9163;48.818;8.976;2023-07-22T11:44:00;26.50;1.00
15937;DHT22;9163;48.818;8.976;2023-07-22T11:46:28;25.70;1.00
15937;DHT22;9163;48.818;8.976;2023-07-22T11:48:55;25.70;1.00
15937;DHT22;9163;48.818;8.976;2023-07-22T11:51:24;25.00;1.00
15937;DHT22;9163;48.818;8.976;2023-07-22T11:53:53;24.80;1.00
15937;DHT22;9163;48.818;8.976;2023-07-22T11:56:25;25.10;1.00
15937;DHT22;9163;48.818;8.976;2023-07-22T11:58:54;25.40;1.00
15937;DHT22;9163;48.818;8.976;2023-07-22T12:01:23;26.00;1.00
15937;DHT22;9163;48.818;8.976;2023-07-22T12:03:55;26.20;1.00
15937;DHT22;9163;48.818;8.976;2023-07-22T12:06:25;25.20;1.00
15937;DHT22;9163;48.818;8.976;2023-07-22T12:08:52;24.80;1.00
15937;DHT22;9163;48.818;8.976;2023-07-22T12:11:21;25.00;1.00
15937;DHT22;9163;48.818;8.976;2023-07-22T12:13:49;24.90;1.00
15937;DHT22;9163;48.818;8.976;2023-07-22T12:16:34;24.70;1.00
15937;DHT22;9163;48.818;8.976;2023-07-22T12:19:02;24.10;1.00
15937;DHT22;9163;48.818;8.976;2023-07-22T12:21:29;24.40;1.00
15937;DHT22;9163;48.818;8.976;2023-07-22T12:23:57;25.00;1.00
15937;DHT22;9163;48.818;8.976;2023-07-22T12:26:24;25.20;1.00
15937;DHT22;9163;48.818;8.976;2023-07-22T12:28:52;25.10;1.00
15937;DHT22;9163;48.818;8.976;2023-07-22T12:31:19;25.20;1.00
15937;DHT22;9163;48.818;8.976;2023-07-22T12:33:48;25.50;1.00
15937;DHT22;9163;48.818;8.976;2023-07-22T12:36:15;25.70;1.00
15937;DHT22;9163;48.818;8.976;2023-07-22T12:38:43;25.30;1.00
15937;DHT22;9163;48.818;8.976;2023-07-22T12:41:10;25.80;1.00
15937;DHT22;9163;48.818;8.976;2023-07-22T12:43:37;26.50;1.00
15937;DHT22;9163;48.818;8.976;2023-07-22T12:46:04;26.10;1.00
15937;DHT22;9163;48.818;8.976;2023-07-22T12:48:32;26.40;1.00
15937;DHT22;9163;48.818;8.976;2023-07-22T12:51:00;26.40;1.00
15937;DHT22;9163;48.818;8.976;2023-07-22T12:53:28;26.30;1.00
15937;DHT22;9163;48.818;8.976;2023-07-22T12:55:55;27.10;1.00
15937;DHT22;9163;48.818;8.976;2023-07-22T12:58:22;27.60;1.00
15937;DHT22;9163;48.818;8.976;2023-07-22T13:00:49;26.60;1.00
15937;DHT22;9163;48.818;8.976;2023-07-22T13:03:17;25.40;1.00
15937;DHT22;9163;48.818;8.976;2023-07-22T13:05:44;24.90;1.00
15937;DHT22;9163;48.818;8.976;2023-07-22T13:08:12;24.60;1.00
15937;DHT22;9163;48.818;8.976;2023-07-22T13:10:40;25.40;1.00
15937;DHT22;9163;48.818;8.976;2023-07-22T13:13:10;25.80;1.00
15937;DHT22;9163;48.818;8.976;2023-07-22T13:15:38;26.30;1.00
15937;DHT22;9163;48.818;8.976;2023-07-22T13:18:05;27.30;1.00
15937;DHT22;9163;48.818;8.976;2023-07-22T13:20:33;28.00;1.00
15937;DHT22;9163;48.818;8.976;2023-07-22T13:23:01;27.90;1.00
15937;DHT22;9163;48.818;8.976;2023-07-22T13:25:29;28.00;1.00
15937;DHT22;9163;48.818;8.976;2023-07-22T13:27:57;27.90;1.00
15937;DHT22;9163;48.818;8.976;2023-07-22T13:30:24;28.00;1.00
15937;DHT22;9163;48.818;8.976;2023-07-22T13:32:51;27.90;1.00
15937;DHT22;9163;48.818;8.976;2023-07-22T13:35:19;27.30;1.00
15937;DHT22;9163;48.818;8.976;2023-07-22T13:37:47;26.90;99.90
15937;DHT22;9163;48.818;8.976;2023-07-22T13:40:14;26.40;99.90
15937;DHT22;9163;48.818;8.976;2023-07-22T13:42:43;27.10;99.90
15937;DHT22;9163;48.818;8.976;2023-07-22T13:45:11;27.30;99.90
15937;DHT22;9163;48.818;8.976;2023-07-22T13:47:38;27.60;99.90
15937;DHT22;9163;48.818;8.976;2023-07-22T13:50:06;27.10;99.90
15937;DHT22;9163;48.818;8.976;2023-07-22T13:52:34;26.80;1.00
15937;DHT22;9163;48.818;8.976;2023-07-22T13:55:01;26.70;1.00
15937;DHT22;9163;48.818;8.976;2023-07-22T13:57:28;27.10;99.90
15937;DHT22;9163;48.818;8.976;2023-07-22T13:59:57;27.70;1.00
15937;DHT22;9163;48.818;8.976;2023-07-22T14:02:25;27.40;1.00
15937;DHT22;9163;48.818;8.976;2023-07-22T14:04:52;27.10;1.00
15937;DHT22;9163;48.818;8.976;2023-07-22T14:07:19;26.80;1.00
15937;DHT22;9163;48.818;8.976;2023-07-22T14:09:47;26.30;1.00
15937;DHT22;9163;48.818;8.976;2023-07-22T14:12:14;26.40;1.00
15937;DHT22;9163;48.818;8.976;2023-07-22T14:14:41;27.00;99.90
15937;DHT22;9163;48.818;8.976;2023-07-22T14:17:09;26.90;1.00
15937;DHT22;9163;48.818;8.976;2023-07-22T14:19:37;26.80;99.90
15937;DHT22;9163;48.818;8.976;2023-07-22T14:22:05;26.30;1.00
15937;DHT22;9163;48.818;8.976;2023-07-22T14:24:32;26.20;1.00
15937;DHT22;9163;48.818;8.976;2023-07-22T14:26:59;26.50;1.00
15937;DHT22;9163;48.818;8.976;2023-07-22T14:29:26;26.20;1.00
15937;DHT22;9163;48.818;8.976;2023-07-22T14:31:55;25.70;1.00
15937;DHT22;9163;48.818;8.976;2023-07-22T14:34:24;25.70;99.90
15937;DHT22;9163;48.818;8.976;2023-07-22T14:36:51;25.70;99.90
15937;DHT22;9163;48.818;8.976;2023-07-22T14:39:19;25.10;99.90
15937;DHT22;9163;48.818;8.976;2023-07-22T14:41:46;25.40;99.90
15937;DHT22;9163;48.818;8.976;2023-07-22T14:44:13;25.20;1.00
15937;DHT22;9163;48.818;8.976;2023-07-22T14:46:40;25.00;1.00
15937;DHT22;9163;48.818;8.976;2023-07-22T14:49:08;25.00;99.90
15937;DHT22;9163;48.818;8.976;2023-07-22T14:51:37;25.30;99.90
15937;DHT22;9163;48.818;8.976;2023-07-22T14:54:04;25.50;99.90
15937;DHT22;9163;48.818;8.976;2023-07-22T14:56:31;26.00;99.90
15937;DHT22;9163;48.818;8.976;2023-07-22T14:58:58;26.00;99.90
15937;DHT22;9163;48.818;8.976;2023-07-22T15:01:26;26.00;99.90
15937;DHT22;9163;48.818;8.976;2023-07-22T15:03:54;26.10;99.90
15937;DHT22;9163;48.818;8.976;2023-07-22T15:06:21;25.70;1.00
15937;DHT22;9163;48.818;8.976;2023-07-22T15:08:50;25.70;99.90
15937;DHT22;9163;48.818;8.976;2023-07-22T15:11:17;25.70;99.90
15937;DHT22;9163;48.818;8.976;2023-07-22T15:13:45;25.40;99.90
15937;DHT22;9163;48.818;8.976;2023-07-22T15:16:12;24.90;99.90
15937;DHT22;9163;48.818;8.976;2023-07-22T15:18:39;25.00;99.90
15937;DHT22;9163;48.818;8.976;2023-07-22T15:21:07;25.30;99.90
15937;DHT22;9163;48.818;8.976;2023-07-22T15:23:34;25.30;99.90
15937;DHT22;9163;48.818;8.976;2023-07-22T15:26:03;25.30;99.90
15937;DHT22;9163;48.818;8.976;2023-07-22T15:28:30;25.50;99.90
15937;DHT22;9163;48.818;8.976;2023-07-22T15:30:57;25.60;99.90
15937;DHT22;9163;48.818;8.976;2023-07-22T15:33:25;25.70;99.90
15937;DHT22;9163;48.818;8.976;2023-07-22T15:35:53;25.70;99.90
15937;DHT22;9163;48.818;8.976;2023-07-22T15:38:20;25.80;99.90
15937;DHT22;9163;48.818;8.976;2023-07-22T15:40:48;25.70;99.90
15937;DHT22;9163;48.818;8.976;2023-07-22T15:43:17;25.60;99.90
15937;DHT22;9163;48.818;8.976;2023-07-22T15:45:44;25.40;99.90
15937;DHT22;9163;48.818;8.976;2023-07-22T15:48:12;25.50;99.90
15937;DHT22;9163;48.818;8.976;2023-07-22T15:50:39;25.60;99.90
15937;DHT22;9163;48.818;8.976;2023-07-22T15:53:06;25.50;99.90
15937;DHT22;9163;48.818;8.976;2023-07-22T15:55:33;25.30;99.90
15937;DHT22;9163;48.818;8.976;2023-07-22T15:58:01;25.20;99.90